Avoca, AR

2:16 PM CDT on August 25, 2019 (GMT -0500)
Avoca | | Change Station

Elev 1348 ft 36.41 °N, 94.07 °W | Updated 10 seconds ago

Rain
Rain
70.9 °F
Feels Like 70.9 °F
N
5
Wind Variable Wind from ESE
Gusts 6.0 mph

Today
High -- | Low -- °F
--% Chance of Precip.
Yesterday
High -- | Low -- °F
Precip. -- in
Pressure 29.87 in
Visibility 10.0 miles
Clouds Few 4300 ft
Mostly Cloudy 5500 ft
Overcast 7000 ft
Dew Point 69 °F
Humidity 95%
Rainfall 0.18 in
Snow Depth Not available.
6:41 AM 7:54 PM
Waning Crescent, 28% visible
METAR KROG 251858Z 18003KT 10SM RA FEW043 BKN055 OVC070 21/19 A2990 RMK AO2 LTG DSNT NE AND E TSE08B15E30B37E52 SLP114 P0017 T02110194
Pressure 29.87 in
Visibility 10.0 miles
Clouds Few 4300 ft
Mostly Cloudy 5500 ft
Overcast 7000 ft
Dew Point 69 °F
Humidity 95%
Rainfall 0.18 in
Snow Depth Not available.
6:41 AM 7:54 PM
Waning Crescent, 28% visible
METAR KROG 251858Z 18003KT 10SM RA FEW043 BKN055 OVC070 21/19 A2990 RMK AO2 LTG DSNT NE AND E TSE08B15E30B37E52 SLP114 P0017 T02110194

Get Severe Weather Alerts

Thanks for signing up!

Be on the lookout for a verification email in your inbox.

You'll start receiving the daily forecast at 6 AM.

×

10-Day Weather Forecast

Almanac

Astronomy

Aug. 25, 2019 Rise Set
Actual Time
Civil Twilight
Nautical Twilight
Astronomical Twilight
Moon
Length of Visible Light
Length of Day
Tomorrow will be .
, % of the Moon is Illuminated

Today's Extremes

State Highs State Lows

Community

WunderPhotos

Category 6

Welcome to Category 6. This is the collective home for Weather Underground's featured writeups by Dr. Jeff Masters (right), Bob Henson (left), Chris Burt, and other regular contributors.

Nearby

Air Quality

  Air Quality AQ Index Pollutant
Not available.

Snow Depth

Station Depth Elevation

Earthquake Activity

City Distance Mag. Time & Date
Minimum magnitude displayed is 2.5.

Coastal Water Temperatures

Place Temperature

Stations

Nearby Weather Stations

Station Location Temp. Windchill Dew Point Humidity Wind Precip. Elev Updated Type
                   

Watches & Warnings

There are currently no watches in effect.